Time;durP1;ratioP1;P1;durP2;ratioP2;P2;SDS_P1;SDS_P2;PMS_P1;PMS_P2;Temp;Humidity;BMP_temperature;BMP_pressure;BME280_temperature;BME280_humidity;BME280_pressure;Samples;Min_cycle;Max_cycle;Signal;HPM_P1;HPM_P2
2023/12/04 00:02:26;;;;;;;11.53;11.03;;;-0.30;99.90;;;;;;5072167;28;20207;-68
2023/12/04 00:04:52;;;;;;;11.70;11.20;;;-0.30;99.90;;;;;;5064488;28;20208;-70
2023/12/04 00:07:19;;;;;;;11.50;11.00;;;-0.20;99.90;;;;;;5068741;28;20212;-69
2023/12/04 00:09:46;;;;;;;11.90;11.40;;;-0.20;99.90;;;;;;5056730;28;20283;-66
2023/12/04 00:12:13;;;;;;;11.67;11.17;;;-0.10;99.90;;;;;;5072661;28;20694;-69
2023/12/04 00:14:39;;;;;;;11.40;10.90;;;-0.20;99.90;;;;;;5067746;28;20207;-70
2023/12/04 00:17:07;;;;;;;11.57;11.07;;;-0.20;99.90;;;;;;5072842;28;20580;-70
2023/12/04 00:19:34;;;;;;;12.00;11.50;;;-0.30;99.90;;;;;;5065477;28;20317;-68
2023/12/04 00:22:01;;;;;;;11.68;11.18;;;-0.40;99.90;;;;;;5065792;28;20203;-70
2023/12/04 00:24:28;;;;;;;12.00;11.50;;;-0.50;99.90;;;;;;5068275;28;20229;-69
2023/12/04 00:26:54;;;;;;;11.80;11.30;;;-0.50;99.90;;;;;;5069858;28;20233;-69
2023/12/04 00:29:21;;;;;;;11.67;11.17;;;-0.50;99.90;;;;;;5063628;28;20211;-66
2023/12/04 00:31:48;;;;;;;11.70;11.20;;;-0.50;99.90;;;;;;5068411;28;20212;-69
2023/12/04 00:34:16;;;;;;;11.60;11.10;;;-0.50;99.90;;;;;;5070316;28;20211;-69
2023/12/04 00:36:42;;;;;;;11.77;11.27;;;-0.70;99.90;;;;;;5075777;28;20238;-69
2023/12/04 00:39:09;;;;;;;12.00;11.50;;;-0.80;99.90;;;;;;5078853;28;20203;-69
2023/12/04 00:41:36;;;;;;;11.90;11.40;;;-0.90;99.90;;;;;;5075361;28;20231;-68
2023/12/04 00:44:02;;;;;;;11.30;10.80;;;-0.90;99.90;;;;;;5079571;28;20213;-68
2023/12/04 00:46:29;;;;;;;11.50;10.93;;;-1.00;99.90;;;;;;5077336;28;20304;-70
2023/12/04 00:48:56;;;;;;;10.67;10.27;;;-1.00;99.90;;;;;;5071429;28;20238;-71
2023/12/04 00:51:24;;;;;;;11.40;10.90;;;-1.00;99.90;;;;;;5064997;28;20211;-69
2023/12/04 00:53:51;;;;;;;11.27;10.77;;;-1.00;99.90;;;;;;5068104;28;20241;-69
2023/12/04 00:56:18;;;;;;;11.20;10.70;;;-1.10;99.90;;;;;;5071233;28;20223;-68
2023/12/04 00:58:45;;;;;;;11.30;10.80;;;-1.20;99.90;;;;;;5071576;28;20219;-69
2023/12/04 01:01:12;;;;;;;11.25;10.75;;;-1.20;99.90;;;;;;5071290;28;20238;-69
2023/12/04 01:03:38;;;;;;;11.00;10.53;;;-1.20;99.90;;;;;;5071216;28;20222;-69
2023/12/04 01:06:06;;;;;;;11.20;10.70;;;-1.20;99.90;;;;;;5067537;28;20223;-68
2023/12/04 01:08:34;;;;;;;11.23;10.73;;;-1.20;99.90;;;;;;5067319;28;20222;-69
2023/12/04 01:11:00;;;;;;;11.30;10.80;;;-1.10;99.90;;;;;;5068058;28;20208;-69
2023/12/04 01:13:27;;;;;;;11.33;10.83;;;-1.10;99.90;;;;;;5071014;28;20215;-69
2023/12/04 01:15:54;;;;;;;11.17;10.67;;;-1.20;99.90;;;;;;5067059;28;20235;-69
2023/12/04 01:18:21;;;;;;;12.07;11.47;;;-1.20;99.90;;;;;;5069371;28;20207;-70
2023/12/04 01:20:47;;;;;;;11.13;10.63;;;-1.20;99.90;;;;;;5075542;28;20234;-67
2023/12/04 01:23:14;;;;;;;11.17;10.67;;;-1.20;99.90;;;;;;5076900;28;20392;-71
2023/12/04 01:25:42;;;;;;;11.10;10.60;;;-1.30;99.90;;;;;;5070144;28;20232;-68
2023/12/04 01:28:09;;;;;;;11.70;11.13;;;-1.40;99.90;;;;;;5069514;28;20211;-68
2023/12/04 01:30:35;;;;;;;11.07;10.57;;;-1.50;99.90;;;;;;5076353;28;20211;-68
2023/12/04 01:33:02;;;;;;;10.57;10.17;;;-1.50;99.90;;;;;;5069147;28;20215;-68
2023/12/04 01:35:29;;;;;;;11.32;10.82;;;-1.60;99.90;;;;;;5076610;28;20257;-68
2023/12/04 01:37:55;;;;;;;10.90;10.40;;;-1.60;99.90;;;;;;5070967;28;20215;-69
2023/12/04 01:40:22;;;;;;;10.50;10.10;;;-1.60;99.90;;;;;;5073367;28;20697;-69
2023/12/04 01:42:50;;;;;;;10.88;10.38;;;-1.60;99.90;;;;;;5073964;28;20637;-70
2023/12/04 01:45:17;;;;;;;10.35;9.95;;;-1.60;99.90;;;;;;5072593;28;20230;-70
2023/12/04 01:47:44;;;;;;;10.90;10.43;;;-1.60;99.90;;;;;;5073160;28;20302;-70
2023/12/04 01:50:11;;;;;;;10.93;10.43;;;-1.60;99.90;;;;;;5069086;28;20214;-69
2023/12/04 01:52:38;;;;;;;10.70;10.30;;;-1.60;99.90;;;;;;5072922;28;20218;-66
2023/12/04 01:55:07;;;;;;;10.60;10.20;;;-1.70;99.90;;;;;;5074245;28;20245;-68
2023/12/04 01:57:33;;;;;;;11.00;10.50;;;-1.70;99.90;;;;;;5077985;28;20219;-70
2023/12/04 02:00:02;;;;;;;11.30;10.80;;;-1.70;99.90;;;;;;5067964;28;20203;-68
2023/12/04 02:02:30;;;;;;;11.45;10.90;;;-1.60;99.90;;;;;;5069444;28;20222;-70
2023/12/04 02:04:58;;;;;;;11.33;10.83;;;-1.50;99.90;;;;;;5068673;28;20207;-68
2023/12/04 02:07:25;;;;;;;11.32;10.82;;;-1.60;99.90;;;;;;5073840;28;20207;-69
2023/12/04 02:09:52;;;;;;;11.07;10.57;;;-1.50;99.90;;;;;;5074508;28;20203;-68
2023/12/04 02:12:19;;;;;;;11.27;10.77;;;-1.50;99.90;;;;;;5078076;28;20216;-68
2023/12/04 02:14:46;;;;;;;10.87;10.37;;;-1.50;99.90;;;;;;5074017;28;20208;-69
2023/12/04 02:17:15;;;;;;;10.90;10.50;;;-1.50;99.90;;;;;;5071727;28;20294;-68
2023/12/04 02:19:41;;;;;;;11.17;10.67;;;-1.50;99.90;;;;;;5072065;28;20215;-69
2023/12/04 02:22:08;;;;;;;11.13;10.63;;;-1.50;99.90;;;;;;5080159;28;20321;-68
2023/12/04 02:24:37;;;;;;;11.00;10.50;;;-1.50;99.90;;;;;;5073766;28;20211;-68
2023/12/04 02:27:11;;;;;;;10.93;10.43;;;-1.50;99.90;;;;;;5075863;28;20227;-69
2023/12/04 02:29:40;;;;;;;11.30;10.80;;;-1.40;99.90;;;;;;5071929;28;20207;-69
2023/12/04 02:32:10;;;;;;;11.43;10.93;;;-1.40;99.90;;;;;;5067636;28;20203;-68
2023/12/04 02:34:39;;;;;;;11.23;10.73;;;-1.50;99.90;;;;;;5065709;28;20211;-68
2023/12/04 02:37:07;;;;;;;11.20;10.70;;;-1.50;99.90;;;;;;5070987;28;20213;-69
2023/12/04 02:39:36;;;;;;;11.20;10.70;;;-1.50;99.90;;;;;;5073442;28;20218;-68
2023/12/04 02:42:03;;;;;;;11.38;10.88;;;-1.50;99.90;;;;;;5071987;28;20227;-69
2023/12/04 02:44:30;;;;;;;11.40;10.90;;;-1.50;99.90;;;;;;5071736;28;20214;-69
2023/12/04 02:46:57;;;;;;;11.43;10.93;;;-1.40;99.90;;;;;;5061233;28;20232;-68
2023/12/04 02:49:23;;;;;;;11.07;10.57;;;-1.50;99.90;;;;;;5051634;28;20212;-68
2023/12/04 02:51:50;;;;;;;11.20;10.70;;;-1.50;99.90;;;;;;5054736;28;20294;-69
2023/12/04 02:54:17;;;;;;;11.00;10.50;;;-1.40;99.90;;;;;;5053994;28;20207;-67
2023/12/04 02:56:45;;;;;;;10.93;10.43;;;-1.40;99.90;;;;;;5053769;28;20236;-68
2023/12/04 02:59:12;;;;;;;10.65;10.20;;;-1.50;99.90;;;;;;5051963;28;20208;-68
2023/12/04 03:01:38;;;;;;;11.27;10.77;;;-1.40;99.90;;;;;;5056442;28;20228;-69
2023/12/04 03:04:05;;;;;;;11.02;10.52;;;-1.40;99.90;;;;;;5055000;28;20303;-68
2023/12/04 03:06:32;;;;;;;11.43;10.93;;;-1.40;99.90;;;;;;5055328;28;20591;-69
2023/12/04 03:09:00;;;;;;;11.35;10.85;;;-1.30;99.90;;;;;;5058577;28;20586;-68
2023/12/04 03:11:26;;;;;;;11.57;11.07;;;-1.20;99.90;;;;;;5067794;28;20234;-67
2023/12/04 03:13:54;;;;;;;11.48;10.98;;;-1.20;99.90;;;;;;5072579;28;20272;-68
2023/12/04 03:16:21;;;;;;;10.93;10.53;;;-1.20;99.90;;;;;;5069260;28;20266;-68
2023/12/04 03:18:48;;;;;;;10.37;9.97;;;-1.20;99.90;;;;;;5068598;28;20219;-73
2023/12/04 03:21:15;;;;;;;11.17;10.77;;;-1.20;99.90;;;;;;5069554;28;20240;-70
2023/12/04 03:23:41;;;;;;;11.00;10.40;;;-1.20;99.90;;;;;;5065880;28;20216;-68
2023/12/04 03:26:08;;;;;;;11.02;10.52;;;-1.20;99.90;;;;;;5073094;28;20299;-67
2023/12/04 03:28:35;;;;;;;11.40;10.90;;;-1.30;99.90;;;;;;5067451;28;20231;-69
2023/12/04 03:31:03;;;;;;;10.53;10.13;;;-1.20;99.90;;;;;;5072202;28;20208;-70
2023/12/04 03:33:30;;;;;;;10.50;10.10;;;-1.20;99.90;;;;;;5060955;28;20211;-69
2023/12/04 03:35:57;;;;;;;10.73;10.33;;;-1.20;99.90;;;;;;5071708;28;20228;-67
2023/12/04 03:38:23;;;;;;;11.70;11.10;;;-1.20;99.90;;;;;;5067244;28;20276;-68
2023/12/04 03:40:50;;;;;;;10.47;10.07;;;-1.10;99.90;;;;;;5071949;28;20227;-67
2023/12/04 03:43:18;;;;;;;11.10;10.70;;;-1.10;99.90;;;;;;5066828;28;20209;-72
2023/12/04 03:45:45;;;;;;;10.90;10.50;;;-1.10;99.90;;;;;;5073057;28;20239;-69
2023/12/04 03:48:13;;;;;;;11.60;11.05;;;-1.00;99.90;;;;;;5072469;28;20211;-69
2023/12/04 03:50:40;;;;;;;9.97;9.57;;;-1.00;99.90;;;;;;5074411;28;20200;-68
2023/12/04 03:53:07;;;;;;;10.80;10.33;;;-1.00;99.90;;;;;;5070845;28;20216;-68
2023/12/04 03:55:33;;;;;;;11.17;10.67;;;-1.00;99.90;;;;;;5060784;28;20295;-68
2023/12/04 03:58:00;;;;;;;10.93;10.50;;;-1.00;99.90;;;;;;5054091;28;20215;-69
2023/12/04 04:00:27;;;;;;;10.60;10.20;;;-1.10;99.90;;;;;;5049021;28;20234;-67
2023/12/04 04:02:53;;;;;;;10.90;10.50;;;-1.10;99.90;;;;;;5050742;28;20213;-69
2023/12/04 04:05:21;;;;;;;10.67;10.27;;;-1.10;99.90;;;;;;5053551;28;20228;-68
2023/12/04 04:07:48;;;;;;;10.50;10.10;;;-1.10;99.90;;;;;;5053397;28;20246;-68
2023/12/04 04:10:15;;;;;;;10.83;10.43;;;-1.00;99.90;;;;;;5052536;28;20223;-67
2023/12/04 04:12:42;;;;;;;10.80;10.40;;;-1.00;99.90;;;;;;5052227;28;20234;-70
2023/12/04 04:15:09;;;;;;;10.70;10.30;;;-1.00;99.90;;;;;;5052219;28;20239;-68
2023/12/04 04:17:36;;;;;;;12.10;11.50;;;-1.10;99.90;;;;;;5052381;28;20211;-69
2023/12/04 04:20:03;;;;;;;10.93;10.53;;;-1.10;99.90;;;;;;5052001;28;20212;-68
2023/12/04 04:22:31;;;;;;;11.50;11.00;;;-1.20;99.90;;;;;;5051472;28;20238;-69
2023/12/04 04:24:57;;;;;;;12.20;11.60;;;-1.10;99.90;;;;;;5051607;28;20211;-68
2023/12/04 04:27:24;;;;;;;11.70;11.13;;;-1.10;99.90;;;;;;5051740;28;20217;-70
2023/12/04 04:29:51;;;;;;;10.47;10.07;;;-1.10;99.90;;;;;;5051868;28;20211;-70
2023/12/04 04:32:17;;;;;;;12.00;11.40;;;-1.00;99.90;;;;;;5056198;28;20203;-70
2023/12/04 04:34:44;;;;;;;11.40;10.90;;;-1.10;99.90;;;;;;5047094;28;20218;-69
2023/12/04 04:37:11;;;;;;;10.70;10.10;;;-1.10;99.90;;;;;;5052111;28;20208;-68
2023/12/04 04:39:40;;;;;;;11.53;11.03;;;-1.10;99.90;;;;;;5048065;28;20215;-67
2023/12/04 04:42:07;;;;;;;10.38;9.98;;;-1.10;99.90;;;;;;5048282;28;20761;-68
2023/12/04 04:44:34;;;;;;;11.47;10.97;;;-1.10;99.90;;;;;;5051289;28;20208;-68
2023/12/04 04:47:00;;;;;;;10.98;10.48;;;-1.10;99.90;;;;;;5047993;28;20234;-70
2023/12/04 04:49:27;;;;;;;11.13;10.63;;;-1.10;99.90;;;;;;5051418;28;20342;-67
2023/12/04 04:51:54;;;;;;;11.07;10.57;;;-1.10;99.90;;;;;;5047355;28;20208;-68
2023/12/04 04:54:20;;;;;;;10.70;10.30;;;-1.00;99.90;;;;;;5051610;28;20223;-68
2023/12/04 04:56:48;;;;;;;10.73;10.33;;;-1.00;99.90;;;;;;5063571;28;20235;-68
2023/12/04 04:59:15;;;;;;;10.60;10.20;;;-1.00;99.90;;;;;;5081538;28;20859;-70
2023/12/04 05:01:42;;;;;;;10.63;10.23;;;-0.90;99.90;;;;;;5078991;28;20291;-67
2023/12/04 05:04:09;;;;;;;11.07;10.67;;;-0.90;99.90;;;;;;5074863;28;20208;-69
2023/12/04 05:06:35;;;;;;;10.32;9.93;;;-1.00;99.90;;;;;;5072473;28;20235;-69
2023/12/04 05:09:02;;;;;;;11.50;11.00;;;-0.90;99.90;;;;;;5078629;28;20207;-69
2023/12/04 05:11:29;;;;;;;11.80;11.30;;;-0.90;99.90;;;;;;5075397;28;20211;-68
2023/12/04 05:13:57;;;;;;;10.73;10.33;;;-0.90;99.90;;;;;;5075445;28;20222;-68
2023/12/04 05:16:23;;;;;;;11.20;10.70;;;-0.80;99.90;;;;;;5075146;28;20256;-68
2023/12/04 05:18:50;;;;;;;11.20;10.70;;;-0.80;99.90;;;;;;5070521;28;20503;-69
2023/12/04 05:21:17;;;;;;;11.57;11.07;;;-0.80;99.90;;;;;;5075786;28;20223;-67
2023/12/04 05:23:44;;;;;;;11.27;10.80;;;-0.80;99.90;;;;;;5066971;28;20210;-69
2023/12/04 05:26:10;;;;;;;11.40;10.90;;;-0.70;99.90;;;;;;5073175;28;20228;-67
2023/12/04 05:28:37;;;;;;;11.23;10.73;;;-0.70;99.90;;;;;;5070839;28;20211;-69
2023/12/04 05:31:06;;;;;;;11.07;10.67;;;-0.70;99.90;;;;;;5082311;28;20203;-69
2023/12/04 05:33:32;;;;;;;11.87;11.37;;;-0.70;99.90;;;;;;5078593;28;20583;-68
2023/12/04 05:36:01;;;;;;;11.70;11.20;;;-0.70;99.90;;;;;;5075129;28;20240;-68
2023/12/04 05:38:27;;;;;;;11.70;11.20;;;-0.60;99.90;;;;;;5072817;28;20575;-70
2023/12/04 05:40:54;;;;;;;11.60;11.10;;;-0.60;99.90;;;;;;5070437;28;20218;-69
2023/12/04 05:43:21;;;;;;;11.47;10.97;;;-0.60;99.90;;;;;;5074938;28;20243;-67
2023/12/04 05:45:48;;;;;;;11.03;10.57;;;-0.60;99.90;;;;;;5069693;28;20234;-69
2023/12/04 05:48:16;;;;;;;11.27;10.77;;;-0.50;99.90;;;;;;5078226;28;20210;-68
2023/12/04 05:50:43;;;;;;;11.40;10.90;;;-0.40;99.90;;;;;;5084354;28;20203;-67
2023/12/04 05:53:10;;;;;;;11.00;10.60;;;-0.40;99.90;;;;;;5085326;28;20202;-67
2023/12/04 05:55:36;;;;;;;10.93;10.53;;;-0.40;99.90;;;;;;5073238;28;20829;-68
2023/12/04 05:58:03;;;;;;;11.43;10.93;;;-0.40;99.90;;;;;;5073306;28;20215;-67
2023/12/04 06:00:30;;;;;;;12.10;11.50;;;-0.40;99.90;;;;;;5066056;28;20222;-70
2023/12/04 06:02:56;;;;;;;11.70;11.20;;;-0.30;99.90;;;;;;5066466;28;20241;-69
2023/12/04 06:05:24;;;;;;;11.70;11.20;;;-0.40;99.90;;;;;;5079551;28;20231;-68
2023/12/04 06:07:51;;;;;;;11.70;11.20;;;-0.30;99.90;;;;;;5080009;28;20203;-68
2023/12/04 06:10:18;;;;;;;12.20;11.70;;;-0.20;99.90;;;;;;5075420;28;20215;-69
2023/12/04 06:12:44;;;;;;;12.40;11.90;;;-0.20;99.90;;;;;;5074967;28;20204;-69
2023/12/04 06:15:10;;;;;;;12.60;12.10;;;-0.20;99.90;;;;;;5074486;28;20326;-68
2023/12/04 06:17:37;;;;;;;11.80;11.30;;;-0.20;99.90;;;;;;5077236;28;20231;-68
2023/12/04 06:20:05;;;;;;;11.83;11.33;;;-0.20;99.90;;;;;;5063260;28;20212;-69
2023/12/04 06:22:34;;;;;;;12.37;11.87;;;-0.10;99.90;;;;;;5060073;28;20578;-70
2023/12/04 06:25:02;;;;;;;12.47;11.97;;;-0.10;99.90;;;;;;5054791;28;20223;-70
2023/12/04 06:27:29;;;;;;;12.90;12.30;;;-0.10;99.90;;;;;;5058192;28;20212;-68
2023/12/04 06:29:56;;;;;;;12.17;11.67;;;-0.10;99.90;;;;;;5049173;28;20663;-70
2023/12/04 06:32:23;;;;;;;12.90;12.40;;;-0.10;99.90;;;;;;5056231;28;20200;-69
2023/12/04 06:34:51;;;;;;;12.63;12.13;;;-0.10;99.90;;;;;;5065546;28;20212;-70
2023/12/04 06:37:18;;;;;;;12.17;11.67;;;0.00;99.90;;;;;;5061962;28;20624;-69
2023/12/04 06:39:49;;;;;;;12.93;12.33;;;0.00;99.90;;;;;;5057758;28;20204;-69
2023/12/04 06:42:16;;;;;;;12.23;11.73;;;0.00;99.90;;;;;;5056719;28;20232;-67
2023/12/04 06:44:43;;;;;;;12.53;12.03;;;0.00;99.90;;;;;;5066670;28;20556;-69
2023/12/04 06:47:12;;;;;;;12.50;12.00;;;0.00;99.90;;;;;;5073549;28;20207;-70
2023/12/04 06:49:39;;;;;;;11.80;11.30;;;0.00;99.90;;;;;;5073606;28;20215;-68
2023/12/04 06:52:06;;;;;;;12.43;11.93;;;0.10;99.90;;;;;;5069982;28;20229;-67
2023/12/04 06:54:33;;;;;;;12.15;11.65;;;0.10;99.90;;;;;;5065275;28;20589;-70
2023/12/04 06:57:01;;;;;;;11.87;11.37;;;0.30;99.90;;;;;;5060353;28;20248;-69
2023/12/04 06:59:28;;;;;;;12.17;11.67;;;0.30;99.90;;;;;;5055995;28;20241;-68
2023/12/04 07:01:55;;;;;;;12.10;11.60;;;0.40;99.90;;;;;;5066856;28;20293;-69
2023/12/04 07:04:22;;;;;;;11.43;11.00;;;0.50;99.90;;;;;;5067597;28;20353;-66
2023/12/04 07:06:49;;;;;;;12.43;11.93;;;0.50;99.90;;;;;;5054613;28;20224;-72
2023/12/04 07:09:16;;;;;;;91.03;83.53;;;0.50;99.90;;;;;;5057319;28;20215;-68
2023/12/04 07:11:43;;;;;;;12.43;11.93;;;0.30;99.90;;;;;;5064667;28;20209;-71
2023/12/04 07:14:12;;;;;;;12.50;12.00;;;0.30;99.90;;;;;;5058798;28;20686;-68
2023/12/04 07:16:42;;;;;;;12.90;12.30;;;0.20;99.90;;;;;;5058241;28;20235;-69
2023/12/04 07:19:09;;;;;;;12.00;11.50;;;0.20;99.90;;;;;;5053306;28;20621;-71
2023/12/04 07:21:36;;;;;;;12.07;11.57;;;0.30;99.90;;;;;;5061400;28;20215;-68
2023/12/04 07:24:03;;;;;;;11.90;11.40;;;0.30;99.90;;;;;;5053350;28;20216;-69
2023/12/04 07:26:31;;;;;;;12.13;11.63;;;0.30;99.90;;;;;;5053130;28;20706;-70
2023/12/04 07:28:58;;;;;;;11.52;11.02;;;0.40;99.90;;;;;;5053060;28;20651;-70
2023/12/04 07:31:26;;;;;;;12.33;11.80;;;0.50;99.90;;;;;;5052223;28;20200;-69
2023/12/04 07:33:53;;;;;;;11.80;11.30;;;0.60;99.90;;;;;;5056390;28;20281;-69
2023/12/04 07:36:20;;;;;;;11.77;11.27;;;0.70;99.90;;;;;;5053789;28;20224;-69
2023/12/04 07:38:47;;;;;;;12.20;11.67;;;0.70;99.90;;;;;;5053105;28;20717;-69
2023/12/04 07:41:15;;;;;;;12.00;11.50;;;0.80;99.90;;;;;;5061243;28;20567;-69
2023/12/04 07:43:41;;;;;;;11.73;11.23;;;0.90;99.90;;;;;;5067342;28;20235;-69
2023/12/04 07:46:11;;;;;;;12.13;11.63;;;0.90;99.90;;;;;;5060511;28;20594;-70
2023/12/04 07:48:39;;;;;;;11.60;11.10;;;1.00;99.90;;;;;;5057007;28;20675;-69
2023/12/04 07:51:07;;;;;;;12.37;11.87;;;1.00;99.90;;;;;;5056229;28;20219;-71
2023/12/04 07:53:41;;;;;;;11.90;11.40;;;1.00;99.90;;;;;;5109919;27;20912;-69
2023/12/04 07:56:09;;;;;;;12.20;11.70;;;1.00;99.90;;;;;;5097483;28;20720;-70
2023/12/04 07:58:36;;;;;;;11.90;11.40;;;1.10;99.90;;;;;;5088987;28;20210;-69
2023/12/04 08:01:03;;;;;;;12.23;11.73;;;1.20;99.90;;;;;;5089359;28;20218;-69
2023/12/04 08:03:30;;;;;;;11.10;10.70;;;1.10;99.90;;;;;;5089483;28;20210;-68
2023/12/04 08:05:58;;;;;;;11.40;11.00;;;1.20;99.90;;;;;;5089801;28;20256;-70
2023/12/04 08:08:25;;;;;;;12.00;11.50;;;1.00;99.90;;;;;;5089259;28;20206;-69
2023/12/04 08:10:53;;;;;;;11.93;11.43;;;0.90;99.90;;;;;;5089057;28;20658;-68
2023/12/04 08:13:20;;;;;;;11.53;11.10;;;0.90;99.90;;;;;;5089161;28;20227;-71
2023/12/04 08:15:47;;;;;;;11.80;11.30;;;0.90;99.90;;;;;;5089066;28;20284;-69
2023/12/04 08:18:13;;;;;;;11.33;10.80;;;0.80;99.90;;;;;;5084497;28;20237;-68
2023/12/04 08:20:40;;;;;;;11.80;11.30;;;0.90;99.90;;;;;;5089444;28;20203;-69
2023/12/04 08:23:07;;;;;;;11.57;11.13;;;0.90;99.90;;;;;;5088976;28;20594;-70
2023/12/04 08:25:34;;;;;;;12.00;11.50;;;0.90;99.90;;;;;;5089017;28;20230;-68
2023/12/04 08:28:03;;;;;;;11.30;10.90;;;1.00;99.90;;;;;;5088935;28;20211;-70
2023/12/04 08:30:30;;;;;;;11.13;10.73;;;1.00;99.90;;;;;;5088294;28;20210;-69
2023/12/04 08:32:57;;;;;;;11.53;11.03;;;1.20;99.90;;;;;;5088837;28;20235;-69
2023/12/04 08:35:23;;;;;;;11.07;10.67;;;1.10;99.90;;;;;;5088970;28;20239;-68
2023/12/04 08:37:50;;;;;;;11.40;10.90;;;1.20;99.90;;;;;;5089199;28;20604;-69
2023/12/04 08:40:17;;;;;;;12.40;11.90;;;1.10;99.90;;;;;;5088900;28;20581;-70
2023/12/04 08:42:45;;;;;;;11.80;11.30;;;1.00;99.90;;;;;;5088824;28;20206;-68
2023/12/04 08:45:13;;;;;;;12.00;11.50;;;0.90;99.90;;;;;;5089367;28;20223;-70
2023/12/04 08:47:40;;;;;;;11.90;11.40;;;0.80;99.90;;;;;;5101008;28;20206;-67
2023/12/04 08:50:09;;;;;;;11.93;11.43;;;0.70;99.90;;;;;;5105324;28;20203;-68
2023/12/04 08:52:36;;;;;;;12.03;11.53;;;0.60;99.90;;;;;;5104062;28;20282;-68
2023/12/04 08:55:02;;;;;;;12.10;11.60;;;0.60;99.90;;;;;;5104649;28;20230;-69
2023/12/04 08:57:29;;;;;;;12.33;11.83;;;0.60;99.90;;;;;;5100416;28;20219;-71
2023/12/04 08:59:56;;;;;;;12.53;12.03;;;0.60;99.90;;;;;;5103578;28;20581;-69
2023/12/04 09:02:24;;;;;;;12.63;12.13;;;0.60;99.90;;;;;;5090023;28;20198;-68
2023/12/04 09:04:50;;;;;;;12.60;12.10;;;0.60;99.90;;;;;;5077221;28;20203;-70
2023/12/04 09:07:17;;;;;;;12.00;11.50;;;0.50;99.90;;;;;;5077509;28;20215;-69
2023/12/04 09:09:44;;;;;;;12.07;11.57;;;0.50;99.90;;;;;;5074825;28;20203;-71
2023/12/04 09:12:10;;;;;;;12.00;11.50;;;0.40;99.90;;;;;;5075067;28;20227;-69
2023/12/04 09:14:37;;;;;;;12.17;11.67;;;0.40;99.90;;;;;;5074969;28;20203;-68
2023/12/04 09:17:04;;;;;;;12.17;11.67;;;0.50;99.90;;;;;;5074571;28;20231;-69
2023/12/04 09:19:32;;;;;;;11.97;11.47;;;0.70;99.90;;;;;;5074548;28;20203;-69
2023/12/04 09:21:59;;;;;;;13.10;12.50;;;0.70;99.90;;;;;;5074670;28;20215;-68
2023/12/04 09:24:27;;;;;;;12.27;11.77;;;0.80;99.90;;;;;;5074295;28;20207;-68
2023/12/04 09:26:54;;;;;;;11.80;11.30;;;1.00;99.90;;;;;;5079610;28;20238;-69
2023/12/04 09:29:23;;;;;;;12.10;11.60;;;1.00;99.90;;;;;;5084234;28;20233;-69
2023/12/04 09:31:51;;;;;;;11.87;11.37;;;1.10;99.90;;;;;;5078791;28;20729;-68
2023/12/04 09:34:17;;;;;;;12.00;11.50;;;1.10;99.90;;;;;;5075543;28;20215;-69
2023/12/04 09:36:45;;;;;;;12.03;11.53;;;1.20;99.90;;;;;;5074003;28;20732;-68
2023/12/04 09:39:12;;;;;;;12.03;11.53;;;1.20;99.90;;;;;;5073924;28;20207;-69
2023/12/04 09:41:40;;;;;;;12.07;11.57;;;1.30;99.90;;;;;;5074158;28;20808;-69
2023/12/04 09:44:08;;;;;;;11.77;11.37;;;1.30;99.90;;;;;;5074205;28;20218;-69
2023/12/04 09:46:35;;;;;;;11.97;11.47;;;1.20;99.90;;;;;;5073764;28;20227;-69
2023/12/04 09:49:04;;;;;;;11.97;11.47;;;1.40;99.90;;;;;;5073671;28;20215;-69
2023/12/04 09:51:31;;;;;;;12.47;11.97;;;1.50;99.90;;;;;;5073489;28;20666;-69
2023/12/04 09:54:03;;;;;;;12.03;11.53;;;1.50;99.90;;;;;;5073755;28;20231;-67
2023/12/04 09:56:30;;;;;;;12.27;11.77;;;1.50;99.90;;;;;;5073958;28;20728;-70
2023/12/04 09:58:59;;;;;;;12.00;11.50;;;1.50;99.90;;;;;;5073642;28;20218;-67
2023/12/04 10:01:27;;;;;;;12.13;11.63;;;1.50;99.90;;;;;;5073662;28;20215;-68
2023/12/04 10:03:56;;;;;;;11.77;11.27;;;1.50;99.90;;;;;;5085025;28;20216;-69
2023/12/04 10:06:24;;;;;;;12.63;12.13;;;1.60;99.90;;;;;;5074718;28;20234;-68
2023/12/04 10:08:51;;;;;;;11.90;11.40;;;1.70;99.90;;;;;;5073718;28;20207;-68
2023/12/04 10:11:19;;;;;;;12.37;11.87;;;1.80;99.90;;;;;;5073368;28;20257;-70
2023/12/04 10:13:46;;;;;;;13.23;12.73;;;2.00;99.90;;;;;;5073385;28;20230;-68
2023/12/04 10:16:13;;;;;;;12.80;12.30;;;2.10;99.90;;;;;;5067580;28;20732;-69
2023/12/04 10:18:40;;;;;;;12.70;12.20;;;2.10;99.90;;;;;;5072531;28;20207;-67
2023/12/04 10:21:07;;;;;;;12.50;12.00;;;1.90;99.90;;;;;;5072873;28;20753;-70
2023/12/04 10:23:39;;;;;;;12.40;11.90;;;1.70;99.90;;;;;;5072904;28;20207;-68
2023/12/04 10:26:07;;;;;;;12.93;12.43;;;1.30;99.90;;;;;;5073380;28;20227;-69
2023/12/04 10:28:35;;;;;;;12.80;12.30;;;1.20;99.90;;;;;;5073382;28;20203;-68
2023/12/04 10:31:02;;;;;;;12.13;11.63;;;1.20;99.90;;;;;;5072830;28;20207;-68
2023/12/04 10:33:30;;;;;;;12.10;11.60;;;1.20;99.90;;;;;;5074489;28;20702;-69
2023/12/04 10:35:57;;;;;;;12.17;11.67;;;1.20;99.90;;;;;;5086541;28;20245;-69
2023/12/04 10:38:26;;;;;;;13.03;12.43;;;1.30;99.90;;;;;;5079199;28;20199;-68
2023/12/04 10:40:53;;;;;;;13.00;12.40;;;1.20;99.90;;;;;;5082274;28;20207;-68
2023/12/04 10:43:22;;;;;;;12.73;12.17;;;1.20;99.90;;;;;;5083566;28;20199;-68
2023/12/04 10:45:51;;;;;;;12.27;11.70;;;1.20;99.90;;;;;;5079608;28;20231;-68
2023/12/04 10:48:19;;;;;;;12.47;11.87;;;1.30;99.90;;;;;;5083340;28;20218;-69
2023/12/04 10:50:48;;;;;;;11.70;11.20;;;1.30;99.90;;;;;;5083421;28;20218;-71
2023/12/04 10:53:16;;;;;;;12.27;11.77;;;1.40;99.90;;;;;;5076655;28;20231;-69
2023/12/04 10:55:44;;;;;;;12.33;11.73;;;1.50;99.90;;;;;;5081081;28;20724;-69
2023/12/04 10:58:12;;;;;;;13.03;12.43;;;1.70;99.90;;;;;;5081436;28;20252;-67
2023/12/04 11:00:41;;;;;;;12.40;11.90;;;1.70;99.90;;;;;;5082341;28;20309;-67
2023/12/04 11:03:11;;;;;;;12.20;11.70;;;1.60;99.90;;;;;;5087381;28;20690;-65
2023/12/04 11:05:40;;;;;;;12.60;12.10;;;1.70;99.90;;;;;;5083753;28;20701;-69
2023/12/04 11:08:09;;;;;;;12.10;11.60;;;1.80;99.90;;;;;;5075197;28;20210;-68
2023/12/04 11:10:42;;;;;;;12.93;12.33;;;1.90;99.90;;;;;;5074552;28;20206;-69
2023/12/04 11:13:15;;;;;;;12.47;11.97;;;2.00;99.90;;;;;;5074333;28;20235;-68
2023/12/04 11:15:45;;;;;;;12.73;12.23;;;2.10;99.90;;;;;;5074619;28;20235;-69
2023/12/04 11:18:15;;;;;;;13.20;12.67;;;2.10;99.90;;;;;;5069803;28;20203;-68
2023/12/04 11:20:47;;;;;;;13.33;12.83;;;2.20;99.90;;;;;;5074906;28;20215;-68
2023/12/04 11:23:15;;;;;;;13.73;13.13;;;2.40;99.90;;;;;;5068861;28;20250;-69
2023/12/04 11:25:43;;;;;;;14.07;13.57;;;2.40;99.90;;;;;;5074385;28;20230;-70
2023/12/04 11:28:10;;;;;;;14.10;13.50;;;2.30;99.90;;;;;;5075364;28;20237;-63
2023/12/04 11:30:38;;;;;;;14.50;13.90;;;2.40;99.90;;;;;;5074215;28;20674;-69
2023/12/04 11:33:06;;;;;;;14.53;14.00;;;2.40;99.90;;;;;;5074108;28;20226;-69
2023/12/04 11:35:35;;;;;;;13.73;13.23;;;2.50;99.90;;;;;;5073763;28;20230;-68
2023/12/04 11:38:02;;;;;;;14.60;14.00;;;2.50;99.90;;;;;;5074122;28;20222;-68
2023/12/04 11:40:29;;;;;;;14.80;14.20;;;2.60;99.90;;;;;;5074928;28;20211;-67
2023/12/04 11:42:56;;;;;;;14.63;14.13;;;2.60;99.90;;;;;;5075214;28;20257;-68
2023/12/04 11:45:23;;;;;;;15.03;14.43;;;2.60;99.90;;;;;;5073762;28;20234;-66
2023/12/04 11:47:50;;;;;;;15.17;14.57;;;2.70;99.90;;;;;;5073871;28;20210;-67
2023/12/04 11:50:18;;;;;;;16.00;15.40;;;2.70;99.90;;;;;;5073184;28;20214;-67
2023/12/04 11:52:47;;;;;;;16.83;16.15;;;2.70;99.90;;;;;;5073094;28;20223;-67
2023/12/04 11:55:17;;;;;;;15.20;14.60;;;2.70;99.90;;;;;;5070388;28;20276;-66
2023/12/04 11:57:45;;;;;;;16.13;15.53;;;2.60;99.90;;;;;;5075452;28;20211;-67
2023/12/04 12:00:21;;;;;;;15.43;14.83;;;2.60;99.90;;;;;;5074671;28;20207;-65
2023/12/04 12:03:02;;;;;;;16.07;15.37;;;2.70;99.90;;;;;;5071681;28;20210;-67
2023/12/04 12:05:29;;;;;;;17.30;16.60;;;2.70;99.90;;;;;;5073628;28;20226;-68
2023/12/04 12:08:00;;;;;;;16.03;15.43;;;2.80;99.90;;;;;;5073118;28;20218;-69
2023/12/04 12:10:28;;;;;;;16.90;16.27;;;2.80;99.90;;;;;;5080406;28;20221;-67
2023/12/04 12:12:55;;;;;;;16.43;15.83;;;2.90;99.90;;;;;;5090128;28;20227;-68
2023/12/04 12:15:22;;;;;;;17.40;16.70;;;3.00;99.90;;;;;;5088624;28;20226;-67
2023/12/04 12:17:50;;;;;;;17.37;16.67;;;3.10;99.90;;;;;;5083486;28;20551;-67
2023/12/04 12:20:20;;;;;;;17.67;16.97;;;3.20;99.90;;;;;;5079930;28;20299;-69
2023/12/04 12:22:49;;;;;;;16.90;16.30;;;3.30;99.90;;;;;;5079773;28;20239;-67
2023/12/04 12:25:19;;;;;;;16.30;15.70;;;3.30;99.90;;;;;;5080749;28;20227;-66
2023/12/04 12:27:46;;;;;;;15.93;15.33;;;3.40;99.90;;;;;;5081677;28;20207;-67
2023/12/04 12:30:13;;;;;;;15.90;15.30;;;3.50;99.90;;;;;;5075198;28;20680;-69
2023/12/04 12:32:40;;;;;;;16.13;15.53;;;3.60;99.90;;;;;;5078315;28;20214;-68